Latest Coastal Weather Observations for Frederick Reef

IDQ60701

Issued at 10:55 am EST Friday 18 April 2014 (issued every 10 minutes, with the page automatically refreshed every 10 minutes)

About coastal observations | Map of coastal stations | Coastal observations for QLD | Marine services | Other Formats
Station Details ID: 200701 Name: FREDERICK REEF Lat: -20.94 Lon: 154.40 Height: 4.9 m
Data from the previous 72 hours. | See also: Recent months for locations in Queensland
Date/Time
EST
Temp

°C
Wind Pressure Rain
since 9am
mm
Weather Cloud Vis
km
Sea
Height
m
Swell
Dir
 
Speed
knots
Gust
knots
hPa Trend Height
m
Period
s
Dir
18/10:30am 25.1 SE 13 15 1015.9 - - - - - - - - -
18/10:00am 25.0 SE 11 15 1015.7 - - - - - - - - -
18/09:30am 25.0 SE 12 14 1016.2 - - - - - - - - -
18/09:00am 24.9 SE 12 15 1015.9 - - - - - - - - -
18/08:30am 25.1 SE 12 15 1016.4 - - - - - - - - -
18/08:00am 24.8 SE 11 13 1016.0 - - - - - - - - -
18/07:30am 25.0 SE 12 14 1016.2 - - - - - - - - -
18/07:00am 24.8 SE 13 15 1015.8 - - - - - - - - -
18/06:30am 24.8 SE 12 15 1016.0 - - - - - - - - -
18/06:00am 24.6 SE 12 16 1015.4 - - - - - - - - -
18/05:30am 24.6 SE 13 15 1015.3 - - - - - - - - -
18/05:00am 24.6 SE 13 16 1014.9 - - - - - - - - -
18/04:30am 24.7 SE 13 15 1014.9 - - - - - - - - -
18/04:00am 24.8 SE 15 19 1014.5 - - - - - - - - -
18/03:30am 24.7 SE 16 19 1014.7 - - - - - - - - -
18/03:00am 24.7 SE 15 17 1014.5 - - - - - - - - -
18/02:30am 24.7 SE 13 16 1015.1 - - - - - - - - -
18/02:00am 24.7 SE 14 15 1014.9 - - - - - - - - -
18/01:30am 24.7 SE 13 16 1015.4 - - - - - - - - -
18/01:00am 24.8 SE 14 16 1015.3 - - - - - - - - -
18/12:30am 25.0 SE 15 18 1015.7 - - - - - - - - -
18/12:00am 24.8 SE 17 19 1016.2 - - - - - - - - -
 
Date/Time
EST
Temp

°C
Wind Pressure Rain
since 9am
mm
Weather Cloud Vis
km
Sea
Height
m
Swell
Dir
 
Speed
knots
Gust
knots
hPa Trend Height
m
Period
s
Dir
17/11:30pm 25.0 SE 17 20 1016.5 - - - - - - - - -
17/11:00pm 25.0 SSE 14 17 1016.7 - - - - - - - - -
17/10:30pm 25.1 SSE 15 17 1017.0 - - - - - - - - -
17/10:00pm 25.2 SE 15 18 1016.6 - - - - - - - - -
17/09:30pm 25.1 SE 16 19 1016.8 - - - - - - - - -
17/09:00pm 25.2 SSE 16 20 1016.4 - - - - - - - - -
17/08:30pm 25.3 SSE 16 20 1016.8 - - - - - - - - -
17/08:00pm 25.3 SSE 16 19 1016.3 - - - - - - - - -
17/07:30pm 25.3 SSE 17 19 1016.1 - - - - - - - - -
17/07:00pm 25.2 SSE 18 20 1015.5 - - - - - - - - -
17/06:30pm 25.1 SSE 17 19 1015.3 - - - - - - - - -
17/06:00pm 25.1 SSE 18 21 1014.6 - - - - - - - - -
17/05:30pm 25.2 SSE 18 22 1014.6 - - - - - - - - -
17/05:00pm 25.2 SSE 18 21 1014.1 - - - - - - - - -
17/04:30pm 25.3 S 19 21 1014.1 - - - - - - - - -
17/04:00pm 25.5 SSE 19 23 1013.6 - - - - - - - - -
17/03:30pm 25.3 SSE 20 22 1013.6 - - - - - - - - -
17/03:00pm 25.4 S 19 23 1013.4 - - - - - - - - -
17/02:30pm 25.4 S 18 20 1013.8 - - - - - - - - -
17/02:00pm 25.3 SSE 16 19 1013.6 - - - - - - - - -
17/01:30pm 25.2 S 15 18 1014.2 - - - - - - - - -
17/01:00pm 25.3 S 16 19 1014.0 - - - - - - - - -
17/12:30pm 25.3 SSE 16 19 1014.6 - - - - - - - - -
17/12:00pm 25.2 SSE 15 19 1014.5 - - - - - - - - -
17/11:30am 25.2 SSE 17 19 1015.3 - - - - - - - - -
17/11:00am 25.2 SSE 15 17 1015.5 - - - - - - - - -
17/10:30am 25.3 SSE 15 18 1016.2 - - - - - - - - -
17/10:00am 25.3 SSE 17 19 1016.0 - - - - - - - - -
17/09:30am 25.4 SSE 17 20 1016.4 - - - - - - - - -
17/09:00am 25.3 SSE 15 17 1016.2 - - - - - - - - -
17/08:30am 25.1 SSE 16 19 1016.5 - - - - - - - - -
17/08:00am 25.0 SSE 16 19 1016.0 - - - - - - - - -
17/07:30am 25.0 SSE 15 17 1016.1 - - - - - - - - -
17/07:00am 25.0 SSE 14 16 1015.5 - - - - - - - - -
17/06:30am 25.0 SSE 16 18 1015.3 - - - - - - - - -
17/06:00am 24.9 SSE 15 18 1014.8 - - - - - - - - -
17/05:30am 25.0 SE 15 17 1014.7 - - - - - - - - -
17/05:00am 24.8 SE 15 19 1014.1 - - - - - - - - -
17/04:30am 24.8 SSE 14 15 1014.3 - - - - - - - - -
17/04:00am 24.9 SE 15 17 1013.9 - - - - - - - - -
17/03:30am 24.8 SSE 14 16 1014.3 - - - - - - - - -
17/03:00am 24.9 SE 15 17 1014.0 - - - - - - - - -
17/02:30am 24.9 SSE 16 20 1014.2 - - - - - - - - -
17/02:00am 25.0 SSE 16 18 1014.0 - - - - - - - - -
17/01:30am 25.0 SSE 16 19 1014.4 - - - - - - - - -
17/01:00am 25.1 SSE 16 18 1014.2 - - - - - - - - -
17/12:30am 25.1 SSE 16 18 1014.7 - - - - - - - - -
17/12:00am 25.2 SSE 15 19 1014.7 - - - - - - - - -
 
Date/Time
EST
Temp

°C
Wind Pressure Rain
since 9am
mm
Weather Cloud Vis
km
Sea
Height
m
Swell
Dir
 
Speed
knots
Gust
knots
hPa Trend Height
m
Period
s
Dir
16/11:30pm 25.2 SSE 17 19 1015.1 - - - - - - - - -
16/11:00pm 25.4 SSE 16 19 1014.8 - - - - - - - - -
16/10:30pm 25.4 SSE 16 19 1015.2 - - - - - - - - -
16/10:00pm 25.2 SSE 16 19 1015.0 - - - - - - - - -
16/09:30pm 25.2 SSE 16 19 1015.3 - - - - - - - - -
16/09:00pm 25.2 SSE 17 19 1014.9 - - - - - - - - -
16/08:30pm 25.5 SSE 15 18 1014.9 - - - - - - - - -
16/08:00pm 25.3 SSE 17 21 1014.4 - - - - - - - - -
16/07:30pm 25.4 SSE 19 21 1014.3 - - - - - - - - -
16/07:00pm 25.4 SSE 19 21 1013.7 - - - - - - - - -
16/06:30pm 25.3 SSE 17 20 1013.8 - - - - - - - - -
16/06:00pm 25.4 SSE 17 22 1013.2 - - - - - - - - -
16/05:30pm 25.2 SSE 17 21 1013.3 - - - - - - - - -
16/05:00pm 25.2 SSE 18 20 1012.9 - - - - - - - - -
16/04:30pm 25.5 SSE 17 21 1013.0 - - - - - - - - -
16/04:00pm 25.2 S 17 19 1012.6 - - - - - - - - -
16/03:30pm 25.2 S 17 21 1012.6 - - - - - - - - -
16/03:00pm 25.2 S 17 19 1012.2 - - - - - - - - -
16/02:30pm 25.1 SSE 15 17 1012.5 - - - - - - - - -
16/02:00pm 25.3 SSE 14 16 1012.4 - - - - - - - - -
16/01:30pm 25.2 S 13 16 1013.2 - - - - - - - - -
16/01:00pm 25.3 S 13 16 1013.1 - - - - - - - - -
16/12:30pm 25.4 SSE 14 16 1013.6 - - - - - - - - -
16/12:00pm 25.3 SSE 14 16 1013.4 - - - - - - - - -
16/11:30am 25.2 SSE 15 17 1014.0 - - - - - - - - -
16/11:00am 25.4 S 15 16 1014.0 - - - - - - - - -
16/10:30am 25.3 SSE 16 18 1014.6 - - - - - - - - -
16/10:00am 25.4 SSE 15 18 1014.7 - - - - - - - - -
16/09:30am 25.3 SSE 16 19 1015.1 - - - - - - - - -
16/09:00am 25.3 SSE 15 17 1014.9 - - - - - - - - -
16/08:30am 25.3 SSE 16 18 1015.0 - - - - - - - - -
16/08:00am 25.2 SSE 16 19 1014.5 - - - - - - - - -
16/07:30am 25.1 SSE 17 21 1014.5 - - - - - - - - -
16/07:00am 25.1 SSE 17 20 1013.9 - - - - - - - - -
16/06:30am 25.1 SSE 17 20 1013.8 - - - - - - - - -
16/06:00am 24.9 SSE 17 19 1013.2 - - - - - - - - -
16/05:30am 24.9 SSE 17 22 1013.2 - - - - - - - - -
16/05:00am 25.0 SSE 17 20 1012.6 - - - - - - - - -
16/04:30am 24.8 SSE 16 18 1012.8 - - - - - - - - -
16/04:00am 25.0 S 16 19 1012.4 - - - - - - - - -
16/03:30am 24.9 S 16 19 1012.5 - - - - - - - - -
16/03:00am 25.2 S 16 19 1012.6 - - - - - - - - -
16/02:30am 25.1 S 17 19 1012.7 - - - - - - - - -
16/02:00am 25.1 S 17 19 1012.4 - - - - - - - - -
16/01:30am 25.4 S 17 20 1013.0 - - - - - - - - -
16/01:00am 25.5 S 17 20 1013.3 - - - - - - - - -
16/12:30am 25.7 S 17 20 1013.6 - - - - - - - - -
16/12:00am 25.5 S 19 22 1013.6 - - - - - - - - -
 
Date/Time
EST
Temp

°C
Wind Pressure Rain
since 9am
mm
Weather Cloud Vis
km
Sea
Height
m
Swell
Dir
 
Speed
knots
Gust
knots
hPa Trend Height
m
Period
s
Dir
15/11:30pm 25.8 SSE 16 21 1013.8 - - - - - - - - -
15/11:00pm 25.7 S 18 20 1013.5 - - - - - - - - -
15/10:30pm 25.9 S 19 21 1013.9 - - - - - - - - -
15/10:00pm 25.6 S 19 21 1013.5 - - - - - - - - -
15/09:30pm 25.9 S 19 21 1013.6 - - - - - - - - -
15/09:00pm 25.8 S 20 22 1013.3 - - - - - - - - -
15/08:30pm 25.9 S 19 22 1013.1 - - - - - - - - -
15/08:00pm 26.0 S 19 23 1012.6 - - - - - - - - -
15/07:30pm 25.9 S 22 25 1012.3 - - - - - - - - -
15/07:00pm 26.1 S 21 25 1011.7 - - - - - - - - -
15/06:30pm 25.9 SSE 21 24 1011.5 - - - - - - - - -
15/06:00pm 25.9 S 19 24 1010.9 - - - - - - - - -
15/05:30pm 25.6 S 20 24 1010.8 - - - - - - - - -
15/05:00pm 25.7 S 20 23 1010.3 - - - - - - - - -
15/04:30pm 25.2 S 20 23 1010.3 - - - - - - - - -
15/04:00pm 25.8 S 19 22 1009.7 - - - - - - - - -
15/03:30pm 25.4 S 19 22 1009.9 - - - - - - - - -
15/03:00pm 25.4 S 21 24 1009.6 - - - - - - - - -
15/02:30pm 25.9 S 19 21 1009.7 - - - - - - - - -
15/02:00pm 25.8 S 18 19 1009.6 - - - - - - - - -
15/01:30pm 25.9 S 17 19 1010.3 - - - - - - - - -
15/01:00pm 26.0 S 17 19 1010.1 - - - - - - - - -
15/12:30pm 25.3 S 20 22 1010.6 - - - - - - - - -
15/12:00pm 25.8 S 17 19 1010.6 - - - - - - - - -
15/11:30am 25.8 S 17 19 1011.3 - - - - - - - - -
15/11:00am 25.7 S 17 19 1011.2 - - - - - - - - -

Other Formats:

Comma delimited format used in spreadsheet applications
http://www.bom.gov.au/fwo/IDQ60701/IDQ60701.94393.axf

JavaScript Object Notation format (JSON) in row-major order
http://www.bom.gov.au/fwo/IDQ60701/IDQ60701.94393.json